sensor_id;sensor_type;location;lat;lon;timestamp;pressure;altitude;pressure_sealevel;temperature;humidity
60373;BME280;46216;52.220;5.134;2023-03-16T00:02:01;101879.97;;;5.48;100.00
60373;BME280;46216;52.220;5.134;2023-03-16T00:04:27;101867.78;;;5.44;100.00
60373;BME280;46216;52.220;5.134;2023-03-16T00:06:53;101869.28;;;5.51;100.00
60373;BME280;46216;52.220;5.134;2023-03-16T00:09:18;101860.50;;;5.51;100.00
60373;BME280;46216;52.220;5.134;2023-03-16T00:11:43;101861.28;;;5.53;100.00
60373;BME280;46216;52.220;5.134;2023-03-16T00:14:09;101856.84;;;5.53;100.00
60373;BME280;46216;52.220;5.134;2023-03-16T00:16:34;101849.91;;;5.51;100.00
60373;BME280;46216;52.220;5.134;2023-03-16T00:19:00;101850.59;;;5.56;100.00
60373;BME280;46216;52.220;5.134;2023-03-16T00:21:27;101843.59;;;5.55;100.00
60373;BME280;46216;52.220;5.134;2023-03-16T00:23:54;101837.34;;;5.57;100.00
60373;BME280;46216;52.220;5.134;2023-03-16T00:26:20;101842.63;;;5.57;100.00
60373;BME280;46216;52.220;5.134;2023-03-16T00:28:47;101834.81;;;5.54;100.00
60373;BME280;46216;52.220;5.134;2023-03-16T00:31:12;101843.63;;;5.53;100.00
60373;BME280;46216;52.220;5.134;2023-03-16T00:33:38;101825.00;;;5.56;100.00
60373;BME280;46216;52.220;5.134;2023-03-16T00:36:05;101832.06;;;5.57;100.00
60373;BME280;46216;52.220;5.134;2023-03-16T00:38:34;101828.47;;;5.58;100.00
60373;BME280;46216;52.220;5.134;2023-03-16T00:41:01;101828.47;;;5.58;100.00
60373;BME280;46216;52.220;5.134;2023-03-16T00:43:30;101831.00;;;5.61;100.00
60373;BME280;46216;52.220;5.134;2023-03-16T00:46:00;101830.09;;;5.62;100.00
60373;BME280;46216;52.220;5.134;2023-03-16T00:48:32;101830.09;;;5.62;100.00
60373;BME280;46216;52.220;5.134;2023-03-16T00:51:00;101827.44;;;5.62;100.00
60373;BME280;46216;52.220;5.134;2023-03-16T00:53:25;101814.22;;;5.62;100.00
60373;BME280;46216;52.220;5.134;2023-03-16T00:55:51;101809.75;;;5.64;100.00
60373;BME280;46216;52.220;5.134;2023-03-16T00:58:18;101804.47;;;5.64;100.00
60373;BME280;46216;52.220;5.134;2023-03-16T01:00:44;101798.25;;;5.65;100.00
60373;BME280;46216;52.220;5.134;2023-03-16T01:03:10;101805.34;;;5.63;100.00
60373;BME280;46216;52.220;5.134;2023-03-16T01:05:40;101799.97;;;5.66;100.00
60373;BME280;46216;52.220;5.134;2023-03-16T01:08:06;101787.47;;;5.70;100.00
60373;BME280;46216;52.220;5.134;2023-03-16T01:10:33;101796.28;;;5.70;100.00
60373;BME280;46216;52.220;5.134;2023-03-16T01:12:58;101791.13;;;5.67;100.00
60373;BME280;46216;52.220;5.134;2023-03-16T01:15:24;101791.91;;;5.69;100.00
60373;BME280;46216;52.220;5.134;2023-03-16T01:17:49;101783.97;;;5.69;100.00
60373;BME280;46216;52.220;5.134;2023-03-16T01:20:16;101780.56;;;5.67;100.00
60373;BME280;46216;52.220;5.134;2023-03-16T01:22:43;101787.44;;;5.72;100.00
60373;BME280;46216;52.220;5.134;2023-03-16T01:25:10;101780.47;;;5.69;100.00
60373;BME280;46216;52.220;5.134;2023-03-16T01:27:36;101775.13;;;5.70;100.00
60373;BME280;46216;52.220;5.134;2023-03-16T01:30:03;101781.22;;;5.73;100.00
60373;BME280;46216;52.220;5.134;2023-03-16T01:32:29;101765.47;;;5.69;100.00
60373;BME280;46216;52.220;5.134;2023-03-16T01:34:54;101765.44;;;5.71;100.00
60373;BME280;46216;52.220;5.134;2023-03-16T01:37:20;101762.81;;;5.69;100.00
60373;BME280;46216;52.220;5.134;2023-03-16T01:39:47;101767.19;;;5.70;100.00
60373;BME280;46216;52.220;5.134;2023-03-16T01:42:12;101761.91;;;5.70;100.00
60373;BME280;46216;52.220;5.134;2023-03-16T01:44:55;101742.53;;;5.70;100.00
60373;BME280;46216;52.220;5.134;2023-03-16T01:47:21;101739.84;;;5.72;100.00
60373;BME280;46216;52.220;5.134;2023-03-16T01:49:48;101733.72;;;5.69;100.00
60373;BME280;46216;52.220;5.134;2023-03-16T01:52:18;101729.31;;;5.70;100.00
60373;BME280;46216;52.220;5.134;2023-03-16T01:54:51;101732.81;;;5.70;100.00
60373;BME280;46216;52.220;5.134;2023-03-16T01:59:51;101727.50;;;5.70;100.00
60373;BME280;46216;52.220;5.134;2023-03-16T02:02:21;101724.94;;;5.69;100.00
60373;BME280;46216;52.220;5.134;2023-03-16T02:04:57;101729.25;;;5.72;100.00
60373;BME280;46216;52.220;5.134;2023-03-16T02:07:25;101723.13;;;5.71;100.00
60373;BME280;46216;52.220;5.134;2023-03-16T02:09:54;101726.38;;;5.78;100.00
60373;BME280;46216;52.220;5.134;2023-03-16T02:12:21;101720.34;;;5.74;100.00
60373;BME280;46216;52.220;5.134;2023-03-16T02:14:48;101713.19;;;5.76;100.00
60373;BME280;46216;52.220;5.134;2023-03-16T02:17:19;101712.47;;;5.73;100.00
60373;BME280;46216;52.220;5.134;2023-03-16T02:20:12;101711.41;;;5.77;100.00
60373;BME280;46216;52.220;5.134;2023-03-16T02:22:47;101707.88;;;5.78;100.00
60373;BME280;46216;52.220;5.134;2023-03-16T02:25:15;101704.22;;;5.80;100.00
60373;BME280;46216;52.220;5.134;2023-03-16T02:27:52;101698.94;;;5.80;100.00
60373;BME280;46216;52.220;5.134;2023-03-16T02:30:20;101697.97;;;5.83;100.00
60373;BME280;46216;52.220;5.134;2023-03-16T02:32:47;101698.78;;;5.85;100.00
60373;BME280;46216;52.220;5.134;2023-03-16T02:35:13;101704.06;;;5.85;100.00
60373;BME280;46216;52.220;5.134;2023-03-16T02:37:39;101701.34;;;5.86;100.00
60373;BME280;46216;52.220;5.134;2023-03-16T02:42:53;101700.50;;;5.86;100.00
60373;BME280;46216;52.220;5.134;2023-03-16T02:45:20;101708.34;;;5.87;100.00
60373;BME280;46216;52.220;5.134;2023-03-16T02:47:48;101708.31;;;5.89;100.00
60373;BME280;46216;52.220;5.134;2023-03-16T02:50:15;101707.50;;;5.87;100.00
60373;BME280;46216;52.220;5.134;2023-03-16T02:52:40;101706.63;;;5.86;100.00
60373;BME280;46216;52.220;5.134;2023-03-16T02:55:06;101704.84;;;5.87;100.00
60373;BME280;46216;52.220;5.134;2023-03-16T02:57:32;101707.44;;;5.88;100.00
60373;BME280;46216;52.220;5.134;2023-03-16T02:59:57;101694.22;;;5.88;100.00
60373;BME280;46216;52.220;5.134;2023-03-16T03:02:23;101695.06;;;5.89;100.00
60373;BME280;46216;52.220;5.134;2023-03-16T03:04:48;101697.72;;;5.89;100.00
60373;BME280;46216;52.220;5.134;2023-03-16T03:07:14;101699.44;;;5.90;100.00
60373;BME280;46216;52.220;5.134;2023-03-16T03:09:40;101703.00;;;5.89;100.00
60373;BME280;46216;52.220;5.134;2023-03-16T03:12:08;101695.06;;;5.89;100.00
60373;BME280;46216;52.220;5.134;2023-03-16T03:14:34;101701.22;;;5.89;100.00
60373;BME280;46216;52.220;5.134;2023-03-16T03:17:04;101704.72;;;5.90;100.00
60373;BME280;46216;52.220;5.134;2023-03-16T03:19:31;101695.19;;;5.86;100.00
60373;BME280;46216;52.220;5.134;2023-03-16T03:21:58;101691.63;;;5.87;100.00
60373;BME280;46216;52.220;5.134;2023-03-16T03:24:23;101696.00;;;5.88;100.00
60373;BME280;46216;52.220;5.134;2023-03-16T03:26:49;101687.25;;;5.86;100.00
60373;BME280;46216;52.220;5.134;2023-03-16T03:29:14;101685.44;;;5.88;100.00
60373;BME280;46216;52.220;5.134;2023-03-16T03:31:39;101692.47;;;5.87;100.00
60373;BME280;46216;52.220;5.134;2023-03-16T03:34:04;101680.13;;;5.88;100.00
60373;BME280;46216;52.220;5.134;2023-03-16T03:36:32;101672.25;;;5.86;100.00
60373;BME280;46216;52.220;5.134;2023-03-16T03:38:57;101677.50;;;5.88;100.00
60373;BME280;46216;52.220;5.134;2023-03-16T03:41:22;101669.72;;;5.83;100.00
60373;BME280;46216;52.220;5.134;2023-03-16T03:43:48;101666.16;;;5.84;100.00
60373;BME280;46216;52.220;5.134;2023-03-16T03:46:13;101675.88;;;5.84;100.00
60373;BME280;46216;52.220;5.134;2023-03-16T03:48:39;101679.56;;;5.80;100.00
60373;BME280;46216;52.220;5.134;2023-03-16T03:51:04;101673.53;;;5.76;100.00
60373;BME280;46216;52.220;5.134;2023-03-16T03:53:31;101669.09;;;5.77;100.00
60373;BME280;46216;52.220;5.134;2023-03-16T03:55:56;101659.63;;;5.71;100.00
60373;BME280;46216;52.220;5.134;2023-03-16T03:58:22;101655.22;;;5.72;100.00
60373;BME280;46216;52.220;5.134;2023-03-16T04:00:47;101662.31;;;5.69;100.00
60373;BME280;46216;52.220;5.134;2023-03-16T04:03:13;101655.31;;;5.68;100.00
60373;BME280;46216;52.220;5.134;2023-03-16T04:05:38;101655.31;;;5.68;100.00
60373;BME280;46216;52.220;5.134;2023-03-16T04:08:04;101659.00;;;5.64;100.00
60373;BME280;46216;52.220;5.134;2023-03-16T04:10:30;101657.28;;;5.63;100.00
60373;BME280;46216;52.220;5.134;2023-03-16T04:12:56;101660.72;;;5.65;100.00
60373;BME280;46216;52.220;5.134;2023-03-16T04:15:22;101651.00;;;5.66;100.00
60373;BME280;46216;52.220;5.134;2023-03-16T04:17:48;101645.72;;;5.66;100.00
60373;BME280;46216;52.220;5.134;2023-03-16T04:20:14;101643.06;;;5.66;100.00
60373;BME280;46216;52.220;5.134;2023-03-16T04:22:44;101649.22;;;5.66;100.00
60373;BME280;46216;52.220;5.134;2023-03-16T04:25:10;101643.03;;;5.67;100.00
60373;BME280;46216;52.220;5.134;2023-03-16T04:27:36;101650.97;;;5.67;100.00
60373;BME280;46216;52.220;5.134;2023-03-16T04:30:07;101641.47;;;5.62;100.00
60373;BME280;46216;52.220;5.134;2023-03-16T04:32:33;101638.59;;;5.68;100.00
60373;BME280;46216;52.220;5.134;2023-03-16T04:34:58;101634.16;;;5.68;100.00
60373;BME280;46216;52.220;5.134;2023-03-16T04:37:24;101641.97;;;5.72;100.00
60373;BME280;46216;52.220;5.134;2023-03-16T04:39:50;101635.88;;;5.69;100.00
60373;BME280;46216;52.220;5.134;2023-03-16T04:42:15;101635.88;;;5.69;100.00
60373;BME280;46216;52.220;5.134;2023-03-16T04:44:40;101634.06;;;5.72;100.00
60373;BME280;46216;52.220;5.134;2023-03-16T04:47:11;101628.69;;;5.73;100.00
60373;BME280;46216;52.220;5.134;2023-03-16T04:49:37;101624.25;;;5.74;100.00
60373;BME280;46216;52.220;5.134;2023-03-16T04:52:03;101626.78;;;5.77;100.00
60373;BME280;46216;52.220;5.134;2023-03-16T04:54:29;101632.16;;;5.75;100.00
60373;BME280;46216;52.220;5.134;2023-03-16T04:56:54;101634.78;;;5.75;100.00
60373;BME280;46216;52.220;5.134;2023-03-16T04:59:20;101637.44;;;5.75;100.00
60373;BME280;46216;52.220;5.134;2023-03-16T05:01:45;101635.63;;;5.76;100.00
60373;BME280;46216;52.220;5.134;2023-03-16T05:04:11;101629.38;;;5.78;100.00
60373;BME280;46216;52.220;5.134;2023-03-16T05:06:36;101627.47;;;5.82;100.00
60373;BME280;46216;52.220;5.134;2023-03-16T05:09:02;101618.72;;;5.80;100.00
60373;BME280;46216;52.220;5.134;2023-03-16T05:11:29;101620.50;;;5.79;100.00
60373;BME280;46216;52.220;5.134;2023-03-16T05:13:55;101638.94;;;5.81;100.00
60373;BME280;46216;52.220;5.134;2023-03-16T05:16:20;101625.81;;;5.79;100.00
60373;BME280;46216;52.220;5.134;2023-03-16T05:18:45;101630.22;;;5.79;100.00
60373;BME280;46216;52.220;5.134;2023-03-16T05:21:11;101640.81;;;5.79;100.00
60373;BME280;46216;52.220;5.134;2023-03-16T05:23:37;101644.19;;;5.82;100.00
60373;BME280;46216;52.220;5.134;2023-03-16T05:26:02;101632.81;;;5.80;100.00
60373;BME280;46216;52.220;5.134;2023-03-16T05:28:28;101637.34;;;5.77;100.00
60373;BME280;46216;52.220;5.134;2023-03-16T05:30:53;101639.16;;;5.76;100.00
60373;BME280;46216;52.220;5.134;2023-03-16T05:33:19;101630.34;;;5.76;100.00
60373;BME280;46216;52.220;5.134;2023-03-16T05:35:45;101614.47;;;5.76;100.00
60373;BME280;46216;52.220;5.134;2023-03-16T05:38:11;101617.06;;;5.77;100.00
60373;BME280;46216;52.220;5.134;2023-03-16T05:40:37;101613.56;;;5.77;100.00
60373;BME280;46216;52.220;5.134;2023-03-16T05:43:03;101606.63;;;5.74;100.00
60373;BME280;46216;52.220;5.134;2023-03-16T05:45:29;101600.56;;;5.70;100.00
60373;BME280;46216;52.220;5.134;2023-03-16T05:47:54;101592.72;;;5.69;100.00
60373;BME280;46216;52.220;5.134;2023-03-16T05:50:20;101603.38;;;5.67;100.00
60373;BME280;46216;52.220;5.134;2023-03-16T05:52:45;101599.06;;;5.65;100.00
60373;BME280;46216;52.220;5.134;2023-03-16T05:55:12;101608.81;;;5.63;100.00
60373;BME280;46216;52.220;5.134;2023-03-16T05:57:40;101604.50;;;5.60;100.00
60373;BME280;46216;52.220;5.134;2023-03-16T06:00:07;101605.31;;;5.62;100.00
60373;BME280;46216;52.220;5.134;2023-03-16T06:02:41;101594.97;;;5.56;100.00
60373;BME280;46216;52.220;5.134;2023-03-16T06:05:07;101607.16;;;5.60;100.00
60373;BME280;46216;52.220;5.134;2023-03-16T06:07:33;101606.38;;;5.58;100.00
60373;BME280;46216;52.220;5.134;2023-03-16T06:09:58;101603.75;;;5.57;100.00
60373;BME280;46216;52.220;5.134;2023-03-16T06:12:23;101596.72;;;5.57;100.00
60373;BME280;46216;52.220;5.134;2023-03-16T06:14:49;101603.66;;;5.60;100.00
60373;BME280;46216;52.220;5.134;2023-03-16T06:17:14;101598.34;;;5.60;100.00
60373;BME280;46216;52.220;5.134;2023-03-16T06:19:40;101589.44;;;5.62;100.00
60373;BME280;46216;52.220;5.134;2023-03-16T06:22:05;101597.38;;;5.62;100.00
60373;BME280;46216;52.220;5.134;2023-03-16T06:24:30;101598.13;;;5.66;100.00
60373;BME280;46216;52.220;5.134;2023-03-16T06:26:56;101599.78;;;5.68;100.00
60373;BME280;46216;52.220;5.134;2023-03-16T06:29:21;101597.16;;;5.68;100.00
60373;BME280;46216;52.220;5.134;2023-03-16T06:31:46;101594.44;;;5.70;100.00
60373;BME280;46216;52.220;5.134;2023-03-16T06:34:12;101585.59;;;5.71;100.00
60373;BME280;46216;52.220;5.134;2023-03-16T06:36:37;101577.69;;;5.69;100.00
60373;BME280;46216;52.220;5.134;2023-03-16T06:39:04;101575.13;;;5.68;100.00
60373;BME280;46216;52.220;5.134;2023-03-16T06:41:30;101581.16;;;5.72;100.00
60373;BME280;46216;52.220;5.134;2023-03-16T06:43:55;101581.03;;;5.75;100.00
60373;BME280;46216;52.220;5.134;2023-03-16T06:46:21;101579.25;;;5.75;100.00
60373;BME280;46216;52.220;5.134;2023-03-16T06:48:47;101579.16;;;5.77;100.00
60373;BME280;46216;52.220;5.134;2023-03-16T06:51:12;101587.84;;;5.80;100.00
60373;BME280;46216;52.220;5.134;2023-03-16T06:53:37;101577.22;;;5.82;100.00
60373;BME280;46216;52.220;5.134;2023-03-16T06:56:03;101578.94;;;5.83;100.00
60373;BME280;46216;52.220;5.134;2023-03-16T06:58:28;101568.09;;;5.89;100.00
60373;BME280;46216;52.220;5.134;2023-03-16T07:00:55;101557.41;;;5.92;100.00
60373;BME280;46216;52.220;5.134;2023-03-16T07:03:20;101572.44;;;5.90;100.00
60373;BME280;46216;52.220;5.134;2023-03-16T07:05:46;101564.31;;;5.96;100.00
60373;BME280;46216;52.220;5.134;2023-03-16T07:08:12;101564.31;;;5.96;100.00
60373;BME280;46216;52.220;5.134;2023-03-16T07:10:39;101571.06;;;6.03;100.00
60373;BME280;46216;52.220;5.134;2023-03-16T07:13:05;101569.22;;;6.05;100.00
60373;BME280;46216;52.220;5.134;2023-03-16T07:15:30;101561.19;;;6.07;100.00
60373;BME280;46216;52.220;5.134;2023-03-16T07:17:55;101557.63;;;6.08;100.00
60373;BME280;46216;52.220;5.134;2023-03-16T07:20:20;101568.88;;;6.13;100.00
60373;BME280;46216;52.220;5.134;2023-03-16T07:22:46;101558.22;;;6.14;100.00
60373;BME280;46216;52.220;5.134;2023-03-16T07:25:12;101553.94;;;6.12;100.00
60373;BME280;46216;52.220;5.134;2023-03-16T07:27:38;101554.78;;;6.12;100.00
60373;BME280;46216;52.220;5.134;2023-03-16T07:30:06;101547.63;;;6.14;100.00
60373;BME280;46216;52.220;5.134;2023-03-16T07:32:32;101549.38;;;6.15;100.00
60373;BME280;46216;52.220;5.134;2023-03-16T07:34:57;101556.50;;;6.13;100.00
60373;BME280;46216;52.220;5.134;2023-03-16T07:37:26;101560.88;;;6.14;100.00
60373;BME280;46216;52.220;5.134;2023-03-16T07:39:51;101556.50;;;6.13;100.00
60373;BME280;46216;52.220;5.134;2023-03-16T07:42:17;101559.16;;;6.13;100.00
60373;BME280;46216;52.220;5.134;2023-03-16T07:44:43;101560.94;;;6.13;100.00
60373;BME280;46216;52.220;5.134;2023-03-16T07:47:12;101568.88;;;6.13;100.00
60373;BME280;46216;52.220;5.134;2023-03-16T07:49:38;101561.81;;;6.13;100.00
60373;BME280;46216;52.220;5.134;2023-03-16T07:52:05;101573.25;;;6.14;100.00
60373;BME280;46216;52.220;5.134;2023-03-16T07:54:31;101566.97;;;6.16;100.00
60373;BME280;46216;52.220;5.134;2023-03-16T07:56:56;101564.25;;;6.18;100.00
60373;BME280;46216;52.220;5.134;2023-03-16T07:59:22;101556.13;;;6.23;100.00
60373;BME280;46216;52.220;5.134;2023-03-16T08:01:47;101555.88;;;6.29;100.00
60373;BME280;46216;52.220;5.134;2023-03-16T08:04:13;101556.50;;;6.34;100.00
60373;BME280;46216;52.220;5.134;2023-03-16T08:06:38;101535.06;;;6.40;100.00
60373;BME280;46216;52.220;5.134;2023-03-16T08:09:04;101548.63;;;6.53;100.00
60373;BME280;46216;52.220;5.134;2023-03-16T08:11:30;101535.16;;;6.57;100.00
60373;BME280;46216;52.220;5.134;2023-03-16T08:13:55;101544.97;;;6.55;100.00
60373;BME280;46216;52.220;5.134;2023-03-16T08:16:25;101535.75;;;6.64;100.00
60373;BME280;46216;52.220;5.134;2023-03-16T08:18:51;101540.91;;;6.67;100.00
60373;BME280;46216;52.220;5.134;2023-03-16T08:21:18;101539.25;;;6.64;100.00
60373;BME280;46216;52.220;5.134;2023-03-16T08:23:44;101549.50;;;6.72;100.00
60373;BME280;46216;52.220;5.134;2023-03-16T08:26:14;101550.38;;;6.73;100.00
60373;BME280;46216;52.220;5.134;2023-03-16T08:28:41;101551.03;;;6.78;100.00
60373;BME280;46216;52.220;5.134;2023-03-16T08:31:07;101551.69;;;6.83;100.00
60373;BME280;46216;52.220;5.134;2023-03-16T08:33:32;101548.00;;;6.85;100.00
60373;BME280;46216;52.220;5.134;2023-03-16T08:36:00;101559.34;;;6.89;100.00
60373;BME280;46216;52.220;5.134;2023-03-16T08:38:26;101558.44;;;6.90;100.00
60373;BME280;46216;52.220;5.134;2023-03-16T08:40:51;101558.06;;;6.98;100.00
60373;BME280;46216;52.220;5.134;2023-03-16T08:43:17;101543.88;;;6.99;100.00
60373;BME280;46216;52.220;5.134;2023-03-16T08:45:46;101548.03;;;7.04;100.00
60373;BME280;46216;52.220;5.134;2023-03-16T08:48:12;101533.06;;;7.03;100.00
60373;BME280;46216;52.220;5.134;2023-03-16T08:50:41;101539.81;;;7.10;100.00
60373;BME280;46216;52.220;5.134;2023-03-16T08:53:09;101534.38;;;7.14;100.00
60373;BME280;46216;52.220;5.134;2023-03-16T08:55:34;101542.94;;;7.19;100.00
60373;BME280;46216;52.220;5.134;2023-03-16T08:58:01;101531.06;;;7.27;100.00
60373;BME280;46216;52.220;5.134;2023-03-16T09:00:27;101518.50;;;7.31;100.00
60373;BME280;46216;52.220;5.134;2023-03-16T09:02:53;101525.28;;;7.37;100.00
60373;BME280;46216;52.220;5.134;2023-03-16T09:05:19;101525.09;;;7.41;100.00
60373;BME280;46216;52.220;5.134;2023-03-16T09:07:45;101531.00;;;7.46;100.00
60373;BME280;46216;52.220;5.134;2023-03-16T09:10:11;101521.25;;;7.47;100.00
60373;BME280;46216;52.220;5.134;2023-03-16T09:12:41;101522.69;;;7.54;100.00
60373;BME280;46216;52.220;5.134;2023-03-16T09:15:07;101516.31;;;7.58;100.00
60373;BME280;46216;52.220;5.134;2023-03-16T09:17:34;101517.00;;;7.62;100.00
60373;BME280;46216;52.220;5.134;2023-03-16T09:20:01;101509.06;;;7.62;100.00
60373;BME280;46216;52.220;5.134;2023-03-16T09:22:27;101505.94;;;7.71;100.00
60373;BME280;46216;52.220;5.134;2023-03-16T09:24:52;101508.44;;;7.74;100.00
60373;BME280;46216;52.220;5.134;2023-03-16T09:27:19;101515.13;;;7.81;100.00
60373;BME280;46216;52.220;5.134;2023-03-16T09:29:45;101501.09;;;7.79;100.00
60373;BME280;46216;52.220;5.134;2023-03-16T09:32:11;101510.38;;;7.88;100.00
60373;BME280;46216;52.220;5.134;2023-03-16T09:34:37;101507.22;;;7.98;100.00
60373;BME280;46216;52.220;5.134;2023-03-16T09:37:03;101501.50;;;8.06;100.00
60373;BME280;46216;52.220;5.134;2023-03-16T09:39:28;101494.94;;;8.13;100.00
60373;BME280;46216;52.220;5.134;2023-03-16T09:42:19;101495.38;;;8.21;100.00
60373;BME280;46216;52.220;5.134;2023-03-16T09:45:13;101494.13;;;8.28;100.00
60373;BME280;46216;52.220;5.134;2023-03-16T09:47:40;101494.53;;;8.38;100.00
60373;BME280;46216;52.220;5.134;2023-03-16T09:50:10;101479.81;;;8.48;100.00
60373;BME280;46216;52.220;5.134;2023-03-16T09:53:07;101485.16;;;8.64;100.00
60373;BME280;46216;52.220;5.134;2023-03-16T09:55:38;101473.94;;;8.75;100.00
60373;BME280;46216;52.220;5.134;2023-03-16T09:58:25;101470.84;;;8.83;100.00
60373;BME280;46216;52.220;5.134;2023-03-16T10:01:17;101475.00;;;8.88;100.00
60373;BME280;46216;52.220;5.134;2023-03-16T10:09:57;101457.31;;;9.03;100.00
60373;BME280;46216;52.220;5.134;2023-03-16T10:12:33;101463.41;;;9.21;100.00
60373;BME280;46216;52.220;5.134;2023-03-16T10:15:13;101466.47;;;9.29;100.00
60373;BME280;46216;52.220;5.134;2023-03-16T10:17:45;101452.19;;;9.46;100.00
60373;BME280;46216;52.220;5.134;2023-03-16T10:20:19;101444.88;;;9.65;100.00
60373;BME280;46216;52.220;5.134;2023-03-16T10:22:47;101456.22;;;9.83;100.00
60373;BME280;46216;52.220;5.134;2023-03-16T10:25:19;101452.25;;;10.05;100.00
60373;BME280;46216;52.220;5.134;2023-03-16T10:27:47;101448.47;;;10.23;100.00
60373;BME280;46216;52.220;5.134;2023-03-16T10:30:22;101439.00;;;10.33;100.00
60373;BME280;46216;52.220;5.134;2023-03-16T10:32:49;101440.88;;;10.46;100.00
60373;BME280;46216;52.220;5.134;2023-03-16T10:35:50;101425.09;;;10.57;100.00
60373;BME280;46216;52.220;5.134;2023-03-16T10:41:05;101423.31;;;10.84;100.00
60373;BME280;46216;52.220;5.134;2023-03-16T10:43:43;101417.09;;;10.98;100.00
60373;BME280;46216;52.220;5.134;2023-03-16T10:46:09;101404.22;;;11.05;100.00
60373;BME280;46216;52.220;5.134;2023-03-16T10:48:36;101409.25;;;11.09;100.00
60373;BME280;46216;52.220;5.134;2023-03-16T10:51:06;101399.59;;;11.21;100.00
60373;BME280;46216;52.220;5.134;2023-03-16T10:53:34;101397.66;;;11.23;100.00
60373;BME280;46216;52.220;5.134;2023-03-16T10:56:11;101392.88;;;11.28;100.00
60373;BME280;46216;52.220;5.134;2023-03-16T10:58:42;101386.25;;;11.34;100.00
60373;BME280;46216;52.220;5.134;2023-03-16T11:01:33;101379.78;;;11.38;100.00
60373;BME280;46216;52.220;5.134;2023-03-16T11:03:59;101369.19;;;11.36;100.00
60373;BME280;46216;52.220;5.134;2023-03-16T11:06:27;101372.91;;;11.34;100.00
60373;BME280;46216;52.220;5.134;2023-03-16T11:09:02;101385.00;;;11.40;100.00
60373;BME280;46216;52.220;5.134;2023-03-16T11:11:30;101375.94;;;11.42;100.00
60373;BME280;46216;52.220;5.134;2023-03-16T11:14:01;101374.22;;;11.41;100.00
60373;BME280;46216;52.220;5.134;2023-03-16T11:16:54;101366.53;;;11.36;100.00
60373;BME280;46216;52.220;5.134;2023-03-16T11:19:57;101367.16;;;11.40;100.00
60373;BME280;46216;52.220;5.134;2023-03-16T11:22:26;101364.94;;;11.47;100.00
60373;BME280;46216;52.220;5.134;2023-03-16T11:25:13;101360.16;;;11.52;100.00
60373;BME280;46216;52.220;5.134;2023-03-16T11:27:48;101338.69;;;11.53;100.00
60373;BME280;46216;52.220;5.134;2023-03-16T11:32:46;101352.34;;;11.74;100.00
60373;BME280;46216;52.220;5.134;2023-03-16T11:35:18;101358.25;;;11.79;100.00
60373;BME280;46216;52.220;5.134;2023-03-16T11:40:35;101349.59;;;11.89;100.00
60373;BME280;46216;52.220;5.134;2023-03-16T11:43:22;101344.69;;;12.08;100.00
60373;BME280;46216;52.220;5.134;2023-03-16T11:46:14;101345.44;;;12.10;100.00
60373;BME280;46216;52.220;5.134;2023-03-16T11:48:50;101339.00;;;12.25;100.00
60373;BME280;46216;52.220;5.134;2023-03-16T11:54:43;101342.94;;;12.32;100.00
60373;BME280;46216;52.220;5.134;2023-03-16T11:57:42;101337.91;;;12.28;100.00
60373;BME280;46216;52.220;5.134;2023-03-16T12:03:31;101332.94;;;12.60;100.00
60373;BME280;46216;52.220;5.134;2023-03-16T12:09:20;101325.13;;;12.81;100.00
60373;BME280;46216;52.220;5.134;2023-03-16T12:11:55;101317.59;;;12.86;100.00
60373;BME280;46216;52.220;5.134;2023-03-16T12:14:52;101322.56;;;12.79;100.00
60373;BME280;46216;52.220;5.134;2023-03-16T12:17:26;101315.56;;;12.90;100.00
60373;BME280;46216;52.220;5.134;2023-03-16T12:20:09;101315.84;;;12.98;100.00
60373;BME280;46216;52.220;5.134;2023-03-16T12:22:54;101315.72;;;12.99;100.00
60373;BME280;46216;52.220;5.134;2023-03-16T12:25:30;101321.91;;;13.00;100.00
60373;BME280;46216;52.220;5.134;2023-03-16T12:27:59;101322.22;;;13.08;100.00
60373;BME280;46216;52.220;5.134;2023-03-16T12:33:13;101312.00;;;13.13;100.00
60373;BME280;46216;52.220;5.134;2023-03-16T12:35:53;101304.50;;;13.18;100.00
60373;BME280;46216;52.220;5.134;2023-03-16T12:38:38;101309.66;;;13.33;100.00
60373;BME280;46216;52.220;5.134;2023-03-16T12:44:14;101288.53;;;13.52;100.00
60373;BME280;46216;52.220;5.134;2023-03-16T12:47:00;101268.06;;;13.51;100.00
60373;BME280;46216;52.220;5.134;2023-03-16T12:49:32;101266.88;;;13.78;100.00
60373;BME280;46216;52.220;5.134;2023-03-16T12:52:05;101261.38;;;13.90;100.00
60373;BME280;46216;52.220;5.134;2023-03-16T12:54:31;101250.06;;;13.98;100.00
60373;BME280;46216;52.220;5.134;2023-03-16T12:57:02;101233.34;;;14.17;100.00
60373;BME280;46216;52.220;5.134;2023-03-16T12:59:40;101211.09;;;14.37;100.00
60373;BME280;46216;52.220;5.134;2023-03-16T13:02:25;101219.00;;;14.39;100.00
60373;BME280;46216;52.220;5.134;2023-03-16T13:05:01;101215.78;;;14.24;100.00
60373;BME280;46216;52.220;5.134;2023-03-16T13:07:28;101215.56;;;14.48;100.00
60373;BME280;46216;52.220;5.134;2023-03-16T13:10:06;101213.53;;;14.52;100.00
60373;BME280;46216;52.220;5.134;2023-03-16T13:12:37;101199.78;;;14.66;100.00
60373;BME280;46216;52.220;5.134;2023-03-16T13:17:44;101203.41;;;14.76;100.00
60373;BME280;46216;52.220;5.134;2023-03-16T13:22:44;101202.38;;;14.68;100.00
60373;BME280;46216;52.220;5.134;2023-03-16T13:28:04;101189.84;;;14.57;100.00
60373;BME280;46216;52.220;5.134;2023-03-16T13:30:32;101187.97;;;14.69;100.00
60373;BME280;46216;52.220;5.134;2023-03-16T13:33:32;101200.28;;;14.92;100.00
60373;BME280;46216;52.220;5.134;2023-03-16T13:36:02;101198.56;;;15.12;100.00
60373;BME280;46216;52.220;5.134;2023-03-16T13:38:30;101192.28;;;15.23;100.00
60373;BME280;46216;52.220;5.134;2023-03-16T13:41:04;101177.41;;;15.49;100.00